Sprucedale, Canada
Current Conditions -  °F | °C
As of 10:00 AM on Friday 19 Dec 2014 (Local Time) from CYQA Reporting Station
Overcast Overcast  
Wind Chill:   Ceiling: 13000
Heat Index: 14°   Visibility: 9mi
Dew Point: 10°   Wind: 9mph
Humidity: 86%   Direction: 310°NW
Pressure: 30.18"   Gusts: NA
Location:  45.48°N, 79.47°W
Report Text: CYQA 191500Z AUTO 31008KT 9SM FEW085 OVC130 M10/M12 A3018 RMK SLP238
Loading
Personal Weather Stations






























Interactive Weather Map New forecast layout! Learn more

10-Day Weather Forecast

Advertisements
Track Severe Weather on mobile